Time;durP1;ratioP1;P1;durP2;ratioP2;P2;SDS_P1;SDS_P2;PMS_P1;PMS_P2;Temp;Humidity;BMP_temperature;BMP_pressure;BME280_temperature;BME280_humidity;BME280_pressure;Samples;Min_cycle;Max_cycle;Signal;HPM_P1;HPM_P2
2023/11/09 00:00:32;;;;;;;4.13;3.15;;;10.20;99.90;;;;;;4987195;28;20206;-81
2023/11/09 00:02:59;;;;;;;2.70;2.50;;;10.10;99.90;;;;;;4993258;28;20270;-83
2023/11/09 00:05:26;;;;;;;9.55;6.32;;;10.20;99.90;;;;;;4992678;28;20207;-82
2023/11/09 00:07:53;;;;;;;9.13;3.13;;;10.10;99.90;;;;;;4995761;28;20776;-81
2023/11/09 00:10:20;;;;;;;4.00;3.65;;;10.20;99.90;;;;;;4989388;28;20186;-83
2023/11/09 00:12:48;;;;;;;4.70;4.30;;;10.20;99.90;;;;;;4995334;28;20330;-79
2023/11/09 00:15:15;;;;;;;3.47;3.17;;;10.20;99.90;;;;;;4998755;28;20182;-82
2023/11/09 00:17:43;;;;;;;6.03;3.85;;;10.20;99.90;;;;;;5004120;28;20232;-80
2023/11/09 00:20:11;;;;;;;7.28;3.50;;;10.20;99.90;;;;;;4989042;28;20198;-81
2023/11/09 00:22:38;;;;;;;5.15;3.53;;;10.20;99.90;;;;;;4986480;28;20204;-83
2023/11/09 00:25:06;;;;;;;3.17;2.90;;;10.30;99.90;;;;;;4995008;28;20209;-82
2023/11/09 00:27:33;;;;;;;3.42;3.08;;;10.10;99.90;;;;;;4998245;28;20228;-83
2023/11/09 00:30:00;;;;;;;4.63;3.78;;;10.20;99.90;;;;;;5002976;28;20214;-82
2023/11/09 00:32:27;;;;;;;3.10;2.90;;;10.10;99.90;;;;;;5005466;28;20207;-83
2023/11/09 00:34:55;;;;;;;3.22;2.92;;;10.20;99.90;;;;;;4994020;28;20207;-82
2023/11/09 00:37:23;;;;;;;2.95;2.65;;;10.20;99.90;;;;;;4995088;28;20220;-82
2023/11/09 00:39:50;;;;;;;6.65;3.78;;;10.30;99.90;;;;;;4998090;28;20655;-84
2023/11/09 00:42:16;;;;;;;3.20;2.67;;;10.30;99.90;;;;;;4994434;28;20205;-84
2023/11/09 00:44:43;;;;;;;3.10;2.90;;;10.30;99.90;;;;;;4991927;28;20206;-83
2023/11/09 00:47:10;;;;;;;3.50;3.20;;;10.20;99.90;;;;;;5004885;28;20294;-81
2023/11/09 00:49:37;;;;;;;4.90;3.20;;;10.20;99.90;;;;;;4999719;28;20205;-83
2023/11/09 00:52:05;;;;;;;3.65;3.35;;;10.10;99.90;;;;;;5008263;28;20308;-82
2023/11/09 00:54:32;;;;;;;3.05;2.75;;;10.10;99.90;;;;;;5005733;28;20245;-83
2023/11/09 00:56:59;;;;;;;2.88;2.58;;;10.20;99.90;;;;;;4985779;28;20249;-83
2023/11/09 00:59:26;;;;;;;3.55;3.13;;;10.20;99.90;;;;;;4992803;28;20270;-83
2023/11/09 01:01:53;;;;;;;4.22;3.13;;;10.30;99.90;;;;;;4988916;28;20208;-80
2023/11/09 01:04:20;;;;;;;3.45;3.10;;;10.30;99.90;;;;;;4991387;28;20223;-83
2023/11/09 01:06:47;;;;;;;2.63;2.42;;;10.20;99.90;;;;;;4992989;28;20289;-83
2023/11/09 01:09:17;;;;;;;3.33;3.00;;;10.30;99.90;;;;;;4993764;28;20640;-83
2023/11/09 01:11:44;;;;;;;3.65;3.33;;;10.20;99.90;;;;;;4984524;28;20222;-84
2023/11/09 01:14:11;;;;;;;3.45;3.17;;;10.20;99.90;;;;;;4984845;28;20580;-84
2023/11/09 01:16:38;;;;;;;3.50;3.20;;;10.30;99.90;;;;;;4992105;28;20312;-84
2023/11/09 01:19:05;;;;;;;3.97;3.10;;;10.30;99.90;;;;;;4985700;28;20213;-83
2023/11/09 01:21:32;;;;;;;3.90;3.45;;;10.40;99.90;;;;;;4997621;28;20217;-83
2023/11/09 01:23:58;;;;;;;5.95;3.10;;;10.30;99.90;;;;;;4999062;28;20249;-83
2023/11/09 01:26:27;;;;;;;2.60;2.40;;;10.40;99.90;;;;;;4987936;28;20204;-84
2023/11/09 01:28:53;;;;;;;2.83;2.50;;;10.30;99.90;;;;;;5002745;28;20288;-83
2023/11/09 01:31:21;;;;;;;3.15;2.67;;;10.30;99.90;;;;;;4984036;28;20314;-82
2023/11/09 01:33:48;;;;;;;3.38;3.08;;;10.40;99.90;;;;;;5005381;28;20253;-83
2023/11/09 01:36:15;;;;;;;5.32;3.58;;;10.30;99.90;;;;;;4983035;28;20298;-80
2023/11/09 01:38:42;;;;;;;3.25;2.33;;;10.30;99.90;;;;;;4987770;28;20209;-82
2023/11/09 01:41:09;;;;;;;3.78;2.75;;;10.40;99.90;;;;;;5005946;28;20313;-84
2023/11/09 01:43:39;;;;;;;3.60;2.50;;;10.40;99.90;;;;;;5003556;28;20249;-84
2023/11/09 01:46:06;;;;;;;5.32;3.35;;;10.40;99.90;;;;;;5001758;28;20207;-83
2023/11/09 01:48:35;;;;;;;3.67;2.72;;;10.40;99.90;;;;;;5003179;28;20230;-81
2023/11/09 01:51:03;;;;;;;3.60;2.70;;;10.30;99.90;;;;;;4993946;28;20238;-83
2023/11/09 01:53:30;;;;;;;2.45;2.25;;;10.30;99.90;;;;;;4998283;28;20237;-84
2023/11/09 01:55:58;;;;;;;3.22;2.70;;;10.40;99.90;;;;;;5001781;28;20286;-84
2023/11/09 01:58:25;;;;;;;4.32;2.70;;;10.30;99.90;;;;;;4994048;28;20298;-84
2023/11/09 02:00:58;;;;;;;3.65;2.35;;;10.30;99.90;;;;;;4993570;28;20277;-84
2023/11/09 02:03:26;;;;;;;2.97;2.72;;;10.40;99.90;;;;;;4993346;28;20639;-82
2023/11/09 02:05:53;;;;;;;4.20;3.35;;;10.30;99.90;;;;;;4999067;28;20268;-84
2023/11/09 02:08:21;;;;;;;3.42;2.70;;;10.40;99.90;;;;;;4995541;28;20238;-83
2023/11/09 02:10:48;;;;;;;2.50;2.30;;;10.40;99.90;;;;;;4992079;28;20218;-82
2023/11/09 02:13:15;;;;;;;2.85;2.47;;;10.40;99.90;;;;;;4994486;28;20290;-83
2023/11/09 02:15:41;;;;;;;2.78;2.58;;;10.30;99.90;;;;;;5004318;28;20266;-82
2023/11/09 02:18:10;;;;;;;2.47;2.20;;;10.40;99.90;;;;;;4994570;28;20253;-84
2023/11/09 02:20:37;;;;;;;3.00;2.05;;;10.40;99.90;;;;;;4992287;28;20212;-83
2023/11/09 02:23:07;;;;;;;2.58;2.15;;;10.40;99.90;;;;;;4990252;28;20211;-84
2023/11/09 02:25:35;;;;;;;2.45;2.25;;;10.40;99.90;;;;;;4993894;28;20270;-83
2023/11/09 02:28:03;;;;;;;1.92;1.83;;;10.50;99.90;;;;;;4999007;28;20302;-82
2023/11/09 02:30:29;;;;;;;1.90;1.75;;;10.50;99.90;;;;;;4994957;28;20215;-81
2023/11/09 02:32:57;;;;;;;3.58;2.50;;;10.50;99.90;;;;;;4994596;28;20257;-82
2023/11/09 02:35:24;;;;;;;2.40;2.20;;;10.50;99.90;;;;;;4998872;28;20233;-82
2023/11/09 02:37:51;;;;;;;3.35;2.13;;;10.60;99.90;;;;;;5000308;28;20740;-83
2023/11/09 02:40:18;;;;;;;2.40;2.03;;;10.60;99.90;;;;;;4994289;28;20208;-83
2023/11/09 02:42:46;;;;;;;1.70;1.60;;;10.50;99.90;;;;;;4993866;28;20265;-84
2023/11/09 02:45:13;;;;;;;3.17;2.40;;;10.60;99.90;;;;;;5009086;28;20678;-84
2023/11/09 02:47:40;;;;;;;7.30;2.55;;;10.50;99.90;;;;;;4997951;28;20232;-83
2023/11/09 02:50:09;;;;;;;1.55;1.45;;;10.60;99.90;;;;;;5006349;28;20224;-83
2023/11/09 02:52:35;;;;;;;1.88;1.50;;;10.60;99.90;;;;;;4997240;28;20234;-84
2023/11/09 02:55:02;;;;;;;4.55;2.40;;;10.60;99.90;;;;;;5007212;28;20252;-80
2023/11/09 02:57:29;;;;;;;2.95;2.10;;;10.60;99.90;;;;;;5008191;28;20254;-79
2023/11/09 02:59:58;;;;;;;2.05;1.60;;;10.50;99.90;;;;;;5007728;28;20275;-80
2023/11/09 03:02:25;;;;;;;2.72;2.10;;;10.60;99.90;;;;;;5004488;28;20187;-81
2023/11/09 03:04:51;;;;;;;2.40;2.20;;;10.50;99.90;;;;;;5006457;28;20236;-79
2023/11/09 03:07:18;;;;;;;2.95;2.40;;;10.50;99.90;;;;;;5020016;28;20235;-80
2023/11/09 03:09:45;;;;;;;3.72;2.85;;;10.50;99.90;;;;;;5002268;28;20209;-80
2023/11/09 03:12:12;;;;;;;2.60;2.28;;;10.50;99.90;;;;;;5010768;28;20193;-80
2023/11/09 03:14:39;;;;;;;3.45;2.25;;;10.50;99.90;;;;;;4998851;28;20591;-83
2023/11/09 03:17:08;;;;;;;2.40;2.20;;;10.60;99.90;;;;;;4991682;28;20293;-83
2023/11/09 03:19:35;;;;;;;2.55;2.22;;;10.60;99.90;;;;;;5002467;28;20237;-82
2023/11/09 03:22:02;;;;;;;2.95;2.75;;;10.50;99.90;;;;;;5000009;28;20203;-82
2023/11/09 03:24:29;;;;;;;2.90;2.60;;;10.50;99.90;;;;;;4996593;28;20208;-81
2023/11/09 03:26:56;;;;;;;5.80;2.70;;;10.60;99.90;;;;;;5004532;28;20624;-82
2023/11/09 03:29:23;;;;;;;3.22;2.90;;;10.60;99.90;;;;;;4992741;28;20289;-82
2023/11/09 03:31:50;;;;;;;3.67;2.70;;;10.60;99.90;;;;;;5012128;28;20221;-82
2023/11/09 03:34:18;;;;;;;2.83;2.60;;;10.60;99.90;;;;;;5004502;28;20226;-82
2023/11/09 03:36:46;;;;;;;3.83;3.17;;;10.60;99.90;;;;;;4996992;28;20300;-83
2023/11/09 03:39:13;;;;;;;3.47;3.17;;;10.60;99.90;;;;;;4997835;28;20207;-83
2023/11/09 03:41:40;;;;;;;4.18;3.47;;;10.70;99.90;;;;;;4998335;28;20282;-84
2023/11/09 03:44:07;;;;;;;3.38;2.65;;;10.70;99.90;;;;;;4992317;28;20199;-82
2023/11/09 03:46:34;;;;;;;6.10;4.18;;;10.70;99.90;;;;;;4997266;28;20199;-82
2023/11/09 03:49:02;;;;;;;6.60;5.90;;;10.70;99.90;;;;;;5003958;28;20269;-81
2023/11/09 03:51:31;;;;;;;6.53;5.13;;;10.70;99.90;;;;;;4989707;28;20243;-82
2023/11/09 03:53:57;;;;;;;6.68;6.05;;;10.70;99.90;;;;;;4997122;28;20257;-80
2023/11/09 03:56:24;;;;;;;7.30;6.03;;;10.70;99.90;;;;;;5002117;28;20237;-80
2023/11/09 03:58:51;;;;;;;5.85;5.32;;;10.70;99.90;;;;;;5009036;28;20284;-80
2023/11/09 04:01:19;;;;;;;5.38;4.88;;;10.70;99.90;;;;;;5005980;28;20194;-81
2023/11/09 04:03:46;;;;;;;5.50;4.32;;;10.80;99.90;;;;;;5010216;28;20237;-82
2023/11/09 04:06:16;;;;;;;4.43;4.05;;;10.70;99.90;;;;;;5000934;28;20217;-82
2023/11/09 04:08:44;;;;;;;4.65;3.85;;;10.60;99.90;;;;;;5000346;28;20270;-83
2023/11/09 04:11:11;;;;;;;4.18;3.40;;;10.70;99.90;;;;;;4994238;28;20338;-83
2023/11/09 04:13:39;;;;;;;4.43;3.42;;;10.60;99.90;;;;;;4990994;28;20220;-83
2023/11/09 04:16:08;;;;;;;4.95;3.58;;;10.60;99.90;;;;;;4990982;28;20252;-82
2023/11/09 04:18:36;;;;;;;4.40;3.88;;;10.70;99.90;;;;;;4994978;28;20227;-83
2023/11/09 04:21:03;;;;;;;4.05;3.60;;;10.70;99.90;;;;;;4993840;28;20204;-83
2023/11/09 04:23:30;;;;;;;4.13;3.78;;;10.60;99.90;;;;;;5000864;28;20275;-82
2023/11/09 04:25:58;;;;;;;4.07;3.47;;;10.70;99.90;;;;;;4995674;28;20215;-82
2023/11/09 04:28:25;;;;;;;4.85;3.72;;;10.70;99.90;;;;;;5014492;28;20286;-82
2023/11/09 04:30:52;;;;;;;3.97;3.60;;;10.60;99.90;;;;;;4995310;28;20210;-82
2023/11/09 04:33:19;;;;;;;5.57;4.45;;;10.60;99.90;;;;;;4988537;28;20317;-82
2023/11/09 04:35:46;;;;;;;4.20;3.75;;;10.60;99.90;;;;;;4995879;28;20225;-83
2023/11/09 04:38:15;;;;;;;3.83;3.53;;;10.50;99.90;;;;;;4993662;28;20234;-82
2023/11/09 04:40:43;;;;;;;5.65;3.40;;;10.60;99.90;;;;;;4992349;28;20209;-82
2023/11/09 04:43:12;;;;;;;5.88;3.90;;;10.60;99.90;;;;;;4988967;28;20271;-83
2023/11/09 04:45:42;;;;;;;4.47;4.07;;;10.50;99.90;;;;;;5000955;28;20586;-82
2023/11/09 04:48:19;;;;;;;4.03;3.60;;;10.50;99.90;;;;;;4996046;28;20226;-82
2023/11/09 04:50:52;;;;;;;3.92;3.42;;;10.60;99.90;;;;;;5000476;28;20221;-84
2023/11/09 04:53:30;;;;;;;3.45;3.17;;;10.50;99.90;;;;;;4999464;28;20305;-82
2023/11/09 04:56:04;;;;;;;5.50;3.13;;;10.40;99.90;;;;;;4987890;28;20252;-83
2023/11/09 04:58:47;;;;;;;2.58;2.38;;;10.50;99.90;;;;;;4992539;28;20323;-82
2023/11/09 05:06:52;;;;;;;3.78;2.55;;;10.50;99.90;;;;;;4992640;28;20223;-81
2023/11/09 05:09:21;;;;;;;4.88;2.92;;;10.50;99.90;;;;;;4984079;28;20222;-82
2023/11/09 05:11:48;;;;;;;5.15;3.10;;;10.50;99.90;;;;;;4988710;28;20246;-82
2023/11/09 05:14:16;;;;;;;3.70;3.00;;;10.40;99.90;;;;;;4988916;28;20235;-82
2023/11/09 05:16:43;;;;;;;3.05;2.75;;;10.40;99.90;;;;;;4996883;28;20223;-82
2023/11/09 05:19:10;;;;;;;2.53;2.33;;;10.40;99.90;;;;;;5003265;28;20398;-81
2023/11/09 05:21:37;;;;;;;4.78;4.10;;;10.40;99.90;;;;;;4991322;28;20633;-82
2023/11/09 05:24:04;;;;;;;3.22;2.95;;;10.40;99.90;;;;;;4994329;28;20665;-83
2023/11/09 05:26:34;;;;;;;2.63;2.42;;;10.40;99.90;;;;;;4996545;28;20220;-82
2023/11/09 05:29:04;;;;;;;3.40;3.10;;;10.40;99.90;;;;;;4997774;28;20210;-81
2023/11/09 05:31:35;;;;;;;3.97;3.13;;;10.50;99.90;;;;;;5005889;28;20212;-81
2023/11/09 05:34:03;;;;;;;2.67;2.47;;;10.50;99.90;;;;;;4992098;28;20222;-82
2023/11/09 05:36:34;;;;;;;3.50;3.20;;;10.50;99.90;;;;;;4996639;28;20236;-82
2023/11/09 05:39:01;;;;;;;4.20;3.80;;;10.50;99.90;;;;;;5002671;28;20208;-82
2023/11/09 05:41:29;;;;;;;3.95;3.65;;;10.40;99.90;;;;;;5006267;28;20230;-83
2023/11/09 05:43:56;;;;;;;5.00;3.40;;;10.50;99.90;;;;;;5003566;28;20200;-83
2023/11/09 05:46:24;;;;;;;5.05;3.60;;;10.50;99.90;;;;;;5002081;28;20206;-83
2023/11/09 05:48:52;;;;;;;4.38;3.20;;;10.40;99.90;;;;;;5005980;28;20218;-82
2023/11/09 05:51:21;;;;;;;5.03;3.75;;;10.60;99.90;;;;;;5005921;28;20715;-83
2023/11/09 05:53:48;;;;;;;2.38;2.17;;;10.50;99.90;;;;;;5013166;28;20225;-81
2023/11/09 05:56:15;;;;;;;3.03;2.72;;;10.40;99.90;;;;;;5013989;28;20247;-81
2023/11/09 05:58:42;;;;;;;3.03;1.95;;;10.40;99.90;;;;;;5009710;28;20207;-80
2023/11/09 06:01:10;;;;;;;3.72;3.42;;;10.40;99.90;;;;;;4998140;28;20206;-82
2023/11/09 06:03:37;;;;;;;2.70;2.50;;;10.50;99.90;;;;;;4999096;28;20228;-82
2023/11/09 06:06:06;;;;;;;3.40;3.10;;;10.50;99.90;;;;;;4997252;28;20200;-81
2023/11/09 06:08:34;;;;;;;4.88;3.33;;;10.50;99.90;;;;;;5003973;28;20324;-83
2023/11/09 06:11:01;;;;;;;3.80;3.08;;;10.50;99.90;;;;;;5001757;28;20235;-83
2023/11/09 06:13:28;;;;;;;3.35;3.05;;;10.50;99.90;;;;;;5005607;28;20221;-83
2023/11/09 06:15:55;;;;;;;2.60;2.40;;;10.50;99.90;;;;;;5006694;28;20211;-83
2023/11/09 06:18:23;;;;;;;3.67;3.28;;;10.50;99.90;;;;;;4993189;28;20230;-81
2023/11/09 06:20:52;;;;;;;6.05;3.80;;;10.50;99.90;;;;;;5003625;28;20231;-81
2023/11/09 06:23:22;;;;;;;4.35;3.35;;;10.60;99.90;;;;;;5002684;28;20553;-82
2023/11/09 06:25:51;;;;;;;4.80;4.40;;;10.50;99.90;;;;;;4994477;28;20210;-83
2023/11/09 06:28:18;;;;;;;3.58;3.28;;;10.50;99.90;;;;;;5006308;28;20210;-80
2023/11/09 06:30:45;;;;;;;5.25;4.50;;;10.50;99.90;;;;;;5004403;28;20199;-80
2023/11/09 06:33:12;;;;;;;4.20;3.90;;;10.50;99.90;;;;;;5002091;28;20226;-80
2023/11/09 06:35:40;;;;;;;3.50;3.20;;;10.50;99.90;;;;;;5009471;28;20215;-79
2023/11/09 06:38:08;;;;;;;4.22;3.83;;;10.50;99.90;;;;;;5003003;28;20288;-81
2023/11/09 06:40:37;;;;;;;4.18;3.78;;;10.50;99.90;;;;;;5014936;28;20200;-81
2023/11/09 06:43:04;;;;;;;4.03;3.60;;;10.50;99.90;;;;;;5001933;28;20216;-81
2023/11/09 06:45:31;;;;;;;3.60;2.75;;;10.60;99.90;;;;;;5002757;28;20271;-80
2023/11/09 06:47:58;;;;;;;8.75;3.85;;;10.60;99.90;;;;;;5012109;28;20294;-81
2023/11/09 06:50:25;;;;;;;4.32;3.65;;;10.50;99.90;;;;;;4994819;28;20210;-80
2023/11/09 06:52:55;;;;;;;4.05;3.58;;;10.60;99.90;;;;;;4999625;28;20213;-79
2023/11/09 06:55:22;;;;;;;4.75;4.30;;;10.60;99.90;;;;;;5002925;28;20216;-79
2023/11/09 06:57:53;;;;;;;3.55;3.30;;;10.60;99.90;;;;;;5012073;28;20293;-79
2023/11/09 07:00:23;;;;;;;3.88;3.58;;;10.60;99.90;;;;;;5001335;28;20215;-80
2023/11/09 07:02:51;;;;;;;3.97;3.65;;;10.60;99.90;;;;;;5002450;28;20250;-81
2023/11/09 07:05:19;;;;;;;4.13;3.83;;;10.60;99.90;;;;;;5015995;28;20193;-81
2023/11/09 07:07:47;;;;;;;4.55;4.25;;;10.60;99.90;;;;;;5006003;28;20622;-79
2023/11/09 07:10:15;;;;;;;5.38;4.82;;;10.50;99.90;;;;;;5003247;28;20198;-84
2023/11/09 07:12:42;;;;;;;10.10;5.90;;;10.50;99.90;;;;;;5013828;28;20214;-82
2023/11/09 07:15:11;;;;;;;5.57;4.80;;;10.50;99.90;;;;;;5010042;28;20215;-83
2023/11/09 07:17:38;;;;;;;4.30;4.00;;;10.50;99.90;;;;;;5017021;28;20252;-83
2023/11/09 07:20:07;;;;;;;6.60;6.00;;;10.50;99.90;;;;;;5010240;28;20222;-86
2023/11/09 07:22:34;;;;;;;5.22;4.82;;;10.50;99.90;;;;;;5008639;28;20200;-84
2023/11/09 07:25:02;;;;;;;5.35;4.85;;;10.60;99.90;;;;;;5010142;28;20230;-83
2023/11/09 07:27:29;;;;;;;6.75;6.10;;;10.70;99.90;;;;;;4999940;28;20228;-84
2023/11/09 07:29:56;;;;;;;5.10;4.70;;;10.70;99.90;;;;;;5014945;28;20228;-84
2023/11/09 07:32:25;;;;;;;6.43;5.85;;;10.70;99.90;;;;;;5010660;28;20259;-84
2023/11/09 07:34:52;;;;;;;6.35;5.85;;;10.70;99.90;;;;;;5016426;28;20287;-80
2023/11/09 07:37:18;;;;;;;6.60;6.10;;;10.70;99.90;;;;;;5009494;28;20253;-81
2023/11/09 07:39:45;;;;;;;7.00;6.40;;;10.70;99.90;;;;;;5004433;28;20211;-81
2023/11/09 07:42:12;;;;;;;5.65;5.15;;;10.80;99.90;;;;;;4998020;28;20336;-82
2023/11/09 07:44:39;;;;;;;5.53;4.72;;;10.80;99.90;;;;;;5002927;28;20191;-81
2023/11/09 07:47:06;;;;;;;5.55;5.15;;;10.90;99.90;;;;;;5010534;28;20283;-79
2023/11/09 07:49:34;;;;;;;14.57;12.95;;;10.90;99.90;;;;;;5006684;28;20267;-82
2023/11/09 07:52:03;;;;;;;5.93;5.35;;;10.90;99.90;;;;;;5010195;28;20229;-82
2023/11/09 07:54:31;;;;;;;7.97;6.57;;;10.80;99.90;;;;;;5007748;28;20285;-82
2023/11/09 07:56:59;;;;;;;7.57;6.88;;;10.90;99.90;;;;;;5014405;28;20318;-80
2023/11/09 07:59:26;;;;;;;7.93;7.22;;;10.90;99.90;;;;;;5008230;28;20203;-81
2023/11/09 08:01:53;;;;;;;7.50;6.88;;;10.90;99.90;;;;;;5013562;28;20247;-80
2023/11/09 08:04:21;;;;;;;7.80;6.95;;;10.80;99.90;;;;;;5004527;28;20200;-80
2023/11/09 08:06:50;;;;;;;9.23;8.32;;;10.80;99.90;;;;;;5010349;28;20284;-80
2023/11/09 08:09:18;;;;;;;7.47;6.78;;;10.90;99.90;;;;;;5013342;28;20210;-82
2023/11/09 08:11:47;;;;;;;8.60;7.68;;;11.00;99.90;;;;;;5004303;28;20207;-82
2023/11/09 08:14:14;;;;;;;7.95;7.25;;;10.90;99.90;;;;;;4994630;28;20263;-81
2023/11/09 08:16:41;;;;;;;8.05;7.35;;;10.80;99.90;;;;;;4996177;28;20315;-81
2023/11/09 08:19:08;;;;;;;9.30;8.32;;;10.80;99.90;;;;;;5004458;28;20284;-81
2023/11/09 08:21:36;;;;;;;7.97;7.30;;;10.80;99.90;;;;;;5002496;28;20280;-80
2023/11/09 08:24:05;;;;;;;8.15;7.47;;;10.90;99.90;;;;;;5000128;28;20213;-82
2023/11/09 08:26:32;;;;;;;8.40;7.60;;;10.90;99.90;;;;;;5005508;28;20609;-81
2023/11/09 08:28:59;;;;;;;9.30;8.45;;;10.90;99.90;;;;;;5003922;28;20204;-82
2023/11/09 08:31:26;;;;;;;8.55;7.85;;;10.90;99.90;;;;;;5000065;28;20210;-84
2023/11/09 08:33:54;;;;;;;7.25;6.65;;;10.90;99.90;;;;;;5010389;28;20201;-82
2023/11/09 08:36:21;;;;;;;7.88;7.32;;;11.00;99.90;;;;;;5001153;28;20211;-80
2023/11/09 08:38:48;;;;;;;7.15;6.53;;;11.00;99.90;;;;;;5003223;28;20206;-81
2023/11/09 08:41:17;;;;;;;8.70;7.90;;;11.10;99.90;;;;;;5005611;28;20276;-81
2023/11/09 08:43:44;;;;;;;8.07;7.47;;;11.00;99.90;;;;;;5007624;28;20205;-82
2023/11/09 08:46:11;;;;;;;8.20;7.60;;;11.10;99.90;;;;;;5004044;28;20278;-80
2023/11/09 08:48:40;;;;;;;9.75;8.85;;;11.20;99.90;;;;;;5003515;28;20255;-81
2023/11/09 08:51:10;;;;;;;10.85;9.85;;;11.10;99.90;;;;;;5003249;28;20209;-81
2023/11/09 08:53:37;;;;;;;11.43;10.52;;;11.10;99.90;;;;;;4996438;28;20208;-85
2023/11/09 08:56:05;;;;;;;10.60;9.05;;;11.10;99.90;;;;;;5002498;28;20713;-82
2023/11/09 08:58:36;;;;;;;10.80;9.90;;;11.10;99.90;;;;;;5006059;28;20242;-82
2023/11/09 09:01:04;;;;;;;10.65;9.45;;;11.20;99.90;;;;;;5006413;28;20713;-81
2023/11/09 09:03:32;;;;;;;10.00;9.05;;;11.20;99.90;;;;;;5002759;28;20310;-82
2023/11/09 09:05:59;;;;;;;9.82;9.02;;;11.20;99.90;;;;;;5007458;28;20199;-82
2023/11/09 09:08:27;;;;;;;9.32;8.43;;;11.20;99.90;;;;;;5011657;28;20292;-82
2023/11/09 09:10:56;;;;;;;10.00;9.15;;;11.30;99.90;;;;;;5005013;28;20205;-85
2023/11/09 09:13:26;;;;;;;9.02;8.32;;;11.30;99.90;;;;;;5009188;28;20223;-82
2023/11/09 09:15:55;;;;;;;9.43;8.73;;;11.40;99.90;;;;;;4994934;28;20236;-83
2023/11/09 09:18:24;;;;;;;7.78;7.18;;;11.30;99.90;;;;;;5008665;28;20726;-84
2023/11/09 09:20:54;;;;;;;11.88;10.88;;;11.30;99.90;;;;;;5005168;28;20303;-85
2023/11/09 09:23:22;;;;;;;10.00;9.15;;;11.30;99.90;;;;;;5012165;28;20447;-86
2023/11/09 09:25:51;;;;;;;10.50;9.73;;;11.40;99.90;;;;;;5013620;28;20240;-84
2023/11/09 09:28:19;;;;;;;8.35;7.68;;;11.50;99.90;;;;;;5007527;28;20223;-83
2023/11/09 09:30:49;;;;;;;10.05;9.25;;;11.60;99.90;;;;;;5002670;28;20208;-82
2023/11/09 09:33:17;;;;;;;9.52;8.73;;;11.50;99.90;;;;;;5002173;28;20202;-83
2023/11/09 09:35:44;;;;;;;10.38;9.45;;;11.50;99.90;;;;;;5007026;28;20220;-88
2023/11/09 09:38:11;;;;;;;10.80;9.80;;;11.50;99.90;;;;;;5005613;28;20221;-69
2023/11/09 09:40:39;;;;;;;10.45;9.50;;;11.50;99.90;;;;;;4982158;28;20212;-69
2023/11/09 09:43:07;;;;;;;9.63;8.20;;;11.50;99.90;;;;;;5008858;28;20207;-68
2023/11/09 09:45:34;;;;;;;9.80;9.00;;;11.40;99.90;;;;;;4992578;28;20247;-69
2023/11/09 09:48:02;;;;;;;10.40;9.40;;;11.50;99.90;;;;;;4995540;28;20308;-68
2023/11/09 09:50:37;;;;;;;8.43;7.60;;;11.50;99.90;;;;;;4995464;28;20299;-68
2023/11/09 09:53:05;;;;;;;8.43;7.82;;;11.60;99.90;;;;;;4995206;28;20202;-68
2023/11/09 09:55:32;;;;;;;7.82;7.32;;;11.60;99.90;;;;;;4997443;28;20239;-70
2023/11/09 09:57:59;;;;;;;8.23;7.60;;;11.70;99.90;;;;;;5032241;22;20253;-70
2023/11/09 10:00:27;;;;;;;8.07;7.45;;;11.80;99.90;;;;;;5008668;28;20216;-71
2023/11/09 10:02:55;;;;;;;8.52;7.82;;;11.80;99.90;;;;;;5017810;28;20293;-72
2023/11/09 10:05:24;;;;;;;7.07;6.55;;;11.80;99.90;;;;;;5015192;28;20212;-72
2023/11/09 10:08:07;;;;;;;6.95;6.25;;;11.90;99.90;;;;;;5015754;28;20262;-70
2023/11/09 10:10:37;;;;;;;7.20;6.70;;;12.00;99.90;;;;;;5003448;28;20220;-74
2023/11/09 10:13:07;;;;;;;7.07;6.57;;;12.20;99.90;;;;;;5008170;28;20239;-74
2023/11/09 10:15:35;;;;;;;6.30;5.90;;;12.10;99.90;;;;;;5005872;28;20717;-71
2023/11/09 10:18:02;;;;;;;5.43;5.05;;;12.20;99.90;;;;;;5008455;28;20228;-71
2023/11/09 10:20:29;;;;;;;6.10;5.60;;;12.20;99.90;;;;;;5002085;28;20634;-74
2023/11/09 10:22:57;;;;;;;6.20;5.80;;;12.10;99.90;;;;;;5013081;28;20230;-71
2023/11/09 10:25:28;;;;;;;6.70;6.20;;;12.20;99.90;;;;;;5012249;28;20201;-72
2023/11/09 10:28:00;;;;;;;8.38;6.20;;;12.10;99.90;;;;;;5006459;28;20584;-71
2023/11/09 10:30:28;;;;;;;5.40;5.00;;;12.10;99.90;;;;;;5010014;28;20205;-74
2023/11/09 10:33:07;;;;;;;5.45;5.05;;;12.10;99.90;;;;;;5010410;28;20258;-72
2023/11/09 10:35:34;;;;;;;7.50;5.13;;;12.00;99.90;;;;;;5012456;28;20231;-73
2023/11/09 10:38:02;;;;;;;5.03;4.53;;;11.80;99.90;;;;;;5010630;28;20701;-70
2023/11/09 10:40:33;;;;;;;5.03;4.65;;;11.70;99.90;;;;;;5009681;28;20212;-71
2023/11/09 10:43:05;;;;;;;5.25;4.78;;;11.80;99.90;;;;;;5012648;28;20211;-72
2023/11/09 10:45:36;;;;;;;4.95;4.55;;;11.80;99.90;;;;;;5008570;28;20644;-70
2023/11/09 10:48:07;;;;;;;4.75;2.42;;;12.10;99.90;;;;;;5020105;28;20652;-69
2023/11/09 10:50:44;;;;;;;5.13;2.60;;;12.10;99.90;;;;;;5007847;28;20211;-69
2023/11/09 10:53:14;;;;;;;2.90;1.95;;;12.20;99.90;;;;;;5009955;28;20208;-72
2023/11/09 10:55:43;;;;;;;2.17;1.90;;;12.20;99.90;;;;;;4997622;28;20225;-74
2023/11/09 10:58:12;;;;;;;2.95;1.50;;;12.30;99.90;;;;;;5004510;28;20622;-75
2023/11/09 11:00:42;;;;;;;2.28;1.70;;;12.40;99.90;;;;;;5005132;28;20223;-75
2023/11/09 11:03:27;;;;;;;3.55;1.92;;;12.40;99.90;;;;;;5003860;28;20201;-73
2023/11/09 11:05:58;;;;;;;4.78;1.95;;;12.50;99.90;;;;;;5002752;28;20208;-74
2023/11/09 11:08:27;;;;;;;10.18;3.05;;;12.40;99.90;;;;;;5002961;28;20229;-75
2023/11/09 11:10:56;;;;;;;2.13;1.50;;;12.50;99.90;;;;;;5007811;28;20208;-76
2023/11/09 11:13:28;;;;;;;2.25;1.90;;;12.60;99.90;;;;;;5002703;28;20211;-74
2023/11/09 11:16:22;;;;;;;3.85;2.45;;;12.50;99.90;;;;;;5004146;28;20263;-76
2023/11/09 11:19:06;;;;;;;2.00;1.50;;;12.40;99.90;;;;;;5000711;28;20327;-72
2023/11/09 11:21:52;;;;;;;6.10;1.95;;;12.40;99.90;;;;;;4999254;28;20208;-74
2023/11/09 11:24:51;;;;;;;2.05;1.60;;;12.50;99.90;;;;;;5000408;28;20233;-74
2023/11/09 11:27:31;;;;;;;8.27;2.55;;;12.40;99.90;;;;;;5005714;28;20243;-73
2023/11/09 11:29:58;;;;;;;8.70;2.78;;;12.50;99.90;;;;;;5003869;28;20252;-76
2023/11/09 11:32:38;;;;;;;3.53;2.15;;;12.60;99.90;;;;;;5001257;28;20236;-75
2023/11/09 11:35:06;;;;;;;8.02;1.90;;;12.70;99.90;;;;;;4999568;28;20253;-74
2023/11/09 11:37:34;;;;;;;12.18;3.03;;;12.80;99.90;;;;;;5005479;28;20224;-76
2023/11/09 11:40:05;;;;;;;11.15;4.38;;;12.80;99.90;;;;;;5004087;28;20295;-75
2023/11/09 11:42:34;;;;;;;2.75;2.20;;;12.90;99.90;;;;;;5000199;28;20244;-75
2023/11/09 11:45:03;;;;;;;4.10;2.03;;;13.00;99.90;;;;;;5009054;28;20201;-73
2023/11/09 11:47:31;;;;;;;5.35;2.28;;;12.90;99.90;;;;;;4999235;28;20233;-74
2023/11/09 11:50:00;;;;;;;5.78;2.00;;;13.00;99.90;;;;;;4999411;28;20295;-73
2023/11/09 11:52:29;;;;;;;10.50;3.55;;;13.10;99.90;;;;;;5001169;28;20621;-72
2023/11/09 11:54:59;;;;;;;7.50;2.05;;;13.00;99.90;;;;;;5004547;28;20201;-73
2023/11/09 11:57:29;;;;;;;10.45;3.30;;;13.00;99.90;;;;;;5000354;28;20233;-73
2023/11/09 12:00:09;;;;;;;7.55;2.80;;;13.10;99.90;;;;;;5012258;28;20212;-72
2023/11/09 12:02:35;;;;;;;9.32;2.78;;;13.00;99.90;;;;;;5000859;28;20259;-75
2023/11/09 12:05:02;;;;;;;8.68;2.75;;;13.10;99.90;;;;;;5010878;28;20201;-75
2023/11/09 12:07:34;;;;;;;9.32;2.45;;;13.10;99.90;;;;;;5002509;28;20368;-75
2023/11/09 12:10:01;;;;;;;5.22;2.58;;;13.10;99.90;;;;;;5004491;28;20649;-75
2023/11/09 12:12:29;;;;;;;9.40;3.45;;;12.90;99.90;;;;;;5002246;28;20220;-72
2023/11/09 12:14:57;;;;;;;13.07;3.67;;;12.80;99.90;;;;;;5005054;28;20652;-73
2023/11/09 12:17:25;;;;;;;18.05;3.25;;;12.70;99.90;;;;;;5003269;28;20240;-74
2023/11/09 12:19:53;;;;;;;17.77;3.60;;;12.60;99.90;;;;;;5007923;28;20589;-71
2023/11/09 12:22:22;;;;;;;9.07;3.17;;;12.60;99.90;;;;;;4998025;28;20262;-72
2023/11/09 12:24:57;;;;;;;11.88;3.70;;;12.60;99.90;;;;;;4997583;28;20201;-72
2023/11/09 12:27:24;;;;;;;13.55;3.65;;;12.60;99.90;;;;;;5023426;28;20227;-84
2023/11/09 12:29:55;;;;;;;7.15;2.47;;;12.60;99.90;;;;;;5028539;28;20224;-84
2023/11/09 12:32:40;;;;;;;16.23;3.60;;;12.60;99.90;;;;;;5015843;28;20216;-85
2023/11/09 12:35:15;;;;;;;11.52;3.22;;;12.60;99.90;;;;;;5018570;28;20216;-85
2023/11/09 12:38:11;;;;;;;7.72;3.03;;;12.70;99.90;;;;;;5010802;28;20243;-85
2023/11/09 12:40:47;;;;;;;13.35;2.75;;;12.80;99.90;;;;;;5023515;28;20232;-83
2023/11/09 12:43:16;;;;;;;9.68;3.03;;;12.80;99.90;;;;;;5018357;28;20739;-84
2023/11/09 12:46:08;;;;;;;8.48;3.40;;;12.80;99.90;;;;;;5009970;28;20205;-84
2023/11/09 12:49:22;;;;;;;14.70;2.90;;;12.80;99.90;;;;;;5022299;28;20667;-84
2023/11/09 12:52:07;;;;;;;14.07;3.45;;;12.90;99.90;;;;;;5022855;28;20205;-84
2023/11/09 12:54:45;;;;;;;7.25;3.22;;;13.00;99.90;;;;;;5032253;28;20213;-84
2023/11/09 12:57:22;;;;;;;7.38;2.83;;;13.10;99.90;;;;;;5012682;28;20240;-85
2023/11/09 13:00:05;;;;;;;13.05;3.35;;;13.00;99.90;;;;;;5026605;28;20212;-84